Terminal Aerodrome Forecast
Issued by NWS

Home | Current Version | Previous Version | Graphics & Text | Print | Product List | Glossary On
Versions: 1 2 3 4 5 6 7 8 9 10 11 12 13 14 15
000
FTUS43 KOAX 230540
TAFCDR
TAF
KCDR 230540Z 2306/2406 32018G30KT 1SM -SN BLSN SCT007 OVC015
     FM231300 33025G35KT 4SM BLSN VCSH SCT007 OVC015
     FM232000 33022G24KT P6SM OVC050
     FM232300 33015G28KT P6SM SCT150=

USA.gov is the U.S. government's official web portal to all federal, state and local government web resources and services.